NWK1610 YPPH-YPKG
Flight info
| Callsign | NWK1610 |
|---|---|
| Flight time | 1h 5m |
| Altitude | 37000 |
| Route | AMANA Y31 LAKIR Y69 BOSLI Y67 KG |
| Aircraft | A319/M-SDE3FGHIRWY/LB1 |
Departure
| Time | 2026-05-06 17:45 |
|---|---|
| Airport | Perth International Airport (YPPH) |
Arrival
| Time | 2026-05-06 18:50 |
|---|---|
| Airport | Kalgoorlie Boulder Airport (YPKG) |
| Time | Latitude | Longitude | Altitude | Speed | Heading |
|---|---|---|---|---|---|
| 2026-05-06 17:17 | -31.93466 | 115.96149 | 68 ft | 0 kts | 300° |
| 2026-05-06 17:36 | -31.93481 | 115.96176 | 58 ft | 4 kts | 310° |
| 2026-05-06 17:36 | -31.93497 | 115.96200 | 61 ft | 4 kts | 285° |
| 2026-05-06 17:36 | -31.93498 | 115.96226 | 59 ft | 4 kts | 255° |
| 2026-05-06 17:36 | -31.93485 | 115.96252 | 64 ft | 4 kts | 214° |
| 2026-05-06 17:37 | -31.93468 | 115.96263 | 63 ft | 0 kts | 204° |
| 2026-05-06 17:40 | -31.93474 | 115.96260 | 62 ft | 2 kts | 206° |
| 2026-05-06 17:40 | -31.93495 | 115.96246 | 65 ft | 5 kts | 210° |
| 2026-05-06 17:40 | -31.93530 | 115.96221 | 68 ft | 7 kts | 211° |
| 2026-05-06 17:41 | -31.93582 | 115.96199 | 66 ft | 9 kts | 193° |
| 2026-05-06 17:41 | -31.93648 | 115.96179 | 65 ft | 11 kts | 194° |
| 2026-05-06 17:41 | -31.93730 | 115.96169 | 65 ft | 13 kts | 201° |
| 2026-05-06 17:41 | -31.93796 | 115.96090 | 67 ft | 15 kts | 224° |
| 2026-05-06 17:42 | -31.93868 | 115.95995 | 67 ft | 17 kts | 239° |
| 2026-05-06 17:42 | -31.93925 | 115.95884 | 66 ft | 12 kts | 238° |
| 2026-05-06 17:42 | -31.93987 | 115.95858 | 65 ft | 10 kts | 156° |
| 2026-05-06 17:42 | -31.93998 | 115.95866 | 63 ft | 0 kts | 149° |
| 2026-05-06 17:43 | -31.94003 | 115.95870 | 61 ft | 2 kts | 149° |
| 2026-05-06 17:43 | -31.94036 | 115.95893 | 62 ft | 9 kts | 149° |
| 2026-05-06 17:44 | -31.94084 | 115.95946 | 64 ft | 10 kts | 91° |
| 2026-05-06 17:44 | -31.94015 | 115.96084 | 64 ft | 41 kts | 59° |
| 2026-05-06 17:44 | -31.93764 | 115.96569 | 66 ft | 97 kts | 59° |
| 2026-05-06 17:44 | -31.93330 | 115.97418 | 105 ft | 140 kts | 60° |
| 2026-05-06 17:45 | -31.92850 | 115.98390 | 639 ft | 139 kts | 59° |
| 2026-05-06 17:45 | -31.92348 | 115.99383 | 1398 ft | 142 kts | 61° |
| 2026-05-06 17:45 | -31.91845 | 116.00373 | 2136 ft | 145 kts | 60° |
| 2026-05-06 17:45 | -31.91288 | 116.01458 | 2489 ft | 165 kts | 60° |
| 2026-05-06 17:46 | -31.90653 | 116.02696 | 2795 ft | 192 kts | 59° |
| 2026-05-06 17:46 | -31.89913 | 116.04151 | 3199 ft | 219 kts | 59° |
| 2026-05-06 17:46 | -31.89101 | 116.05742 | 3929 ft | 233 kts | 59° |
| 2026-05-06 17:46 | -31.88249 | 116.07406 | 4804 ft | 241 kts | 59° |
| 2026-05-06 17:47 | -31.87363 | 116.09130 | 5627 ft | 252 kts | 59° |
| 2026-05-06 17:47 | -31.86435 | 116.10931 | 6377 ft | 263 kts | 59° |
| 2026-05-06 17:47 | -31.85597 | 116.12846 | 7150 ft | 271 kts | 71° |
| 2026-05-06 17:47 | -31.85120 | 116.15012 | 7976 ft | 276 kts | 79° |
| 2026-05-06 17:48 | -31.84708 | 116.17232 | 8825 ft | 280 kts | 79° |
| 2026-05-06 17:48 | -31.84275 | 116.19485 | 9689 ft | 284 kts | 79° |
| 2026-05-06 17:48 | -31.83829 | 116.21778 | 10388 ft | 295 kts | 78° |
| 2026-05-06 17:48 | -31.83354 | 116.24210 | 10724 ft | 316 kts | 78° |
| 2026-05-06 17:49 | -31.82849 | 116.26801 | 11160 ft | 331 kts | 78° |
| 2026-05-06 17:49 | -31.82331 | 116.29463 | 11847 ft | 336 kts | 78° |
| 2026-05-06 17:49 | -31.81803 | 116.32161 | 12590 ft | 339 kts | 78° |
| 2026-05-06 17:49 | -31.81269 | 116.34877 | 13340 ft | 342 kts | 78° |
| 2026-05-06 17:50 | -31.80730 | 116.37618 | 14062 ft | 346 kts | 78° |
| 2026-05-06 17:50 | -31.80187 | 116.40387 | 14730 ft | 349 kts | 78° |
| 2026-05-06 17:50 | -31.79640 | 116.43183 | 15350 ft | 353 kts | 78° |
| 2026-05-06 17:50 | -31.79089 | 116.46005 | 15982 ft | 356 kts | 78° |
| 2026-05-06 17:51 | -31.78532 | 116.48857 | 16600 ft | 360 kts | 78° |
| 2026-05-06 17:51 | -31.77968 | 116.51746 | 17225 ft | 363 kts | 78° |
| 2026-05-06 17:51 | -31.77399 | 116.54646 | 17845 ft | 366 kts | 78° |
| 2026-05-06 17:51 | -31.76821 | 116.57580 | 18471 ft | 370 kts | 78° |
| 2026-05-06 17:52 | -31.76143 | 116.60509 | 19045 ft | 374 kts | 71° |
| 2026-05-06 17:52 | -31.75026 | 116.63255 | 19575 ft | 380 kts | 60° |
| 2026-05-06 17:52 | -31.73435 | 116.65756 | 20117 ft | 386 kts | 49° |
| 2026-05-06 17:52 | -31.71575 | 116.68047 | 20665 ft | 389 kts | 48° |
| 2026-05-06 17:53 | -31.69697 | 116.70357 | 21200 ft | 392 kts | 48° |
| 2026-05-06 17:53 | -31.67807 | 116.72688 | 21726 ft | 396 kts | 48° |
| 2026-05-06 17:53 | -31.65901 | 116.75038 | 22246 ft | 399 kts | 48° |
| 2026-05-06 17:53 | -31.63980 | 116.77407 | 22764 ft | 402 kts | 48° |
| 2026-05-06 17:54 | -31.62049 | 116.79792 | 23262 ft | 405 kts | 48° |
| 2026-05-06 17:54 | -31.60096 | 116.82201 | 23772 ft | 408 kts | 47° |
| 2026-05-06 17:54 | -31.58132 | 116.84618 | 24214 ft | 411 kts | 47° |
| 2026-05-06 17:54 | -31.56202 | 116.87111 | 24618 ft | 413 kts | 53° |
| 2026-05-06 17:55 | -31.54606 | 116.89916 | 25044 ft | 414 kts | 63° |
| 2026-05-06 17:55 | -31.53294 | 116.92922 | 25465 ft | 415 kts | 64° |
| 2026-05-06 17:55 | -31.51979 | 116.95947 | 25867 ft | 417 kts | 64° |
| 2026-05-06 17:55 | -31.50651 | 116.98984 | 26262 ft | 420 kts | 64° |
| 2026-05-06 17:56 | -31.49312 | 117.02037 | 26649 ft | 422 kts | 64° |
| 2026-05-06 17:56 | -31.47962 | 117.05103 | 27039 ft | 425 kts | 64° |
| 2026-05-06 17:56 | -31.46602 | 117.08184 | 27426 ft | 427 kts | 64° |
| 2026-05-06 17:56 | -31.45234 | 117.11282 | 27814 ft | 430 kts | 64° |
| 2026-05-06 17:57 | -31.43857 | 117.14400 | 28197 ft | 432 kts | 64° |
| 2026-05-06 17:57 | -31.42479 | 117.17532 | 28581 ft | 434 kts | 64° |
| 2026-05-06 17:57 | -31.41087 | 117.20694 | 28967 ft | 437 kts | 64° |
| 2026-05-06 17:57 | -31.39689 | 117.23869 | 29254 ft | 441 kts | 64° |
| 2026-05-06 17:58 | -31.38277 | 117.27074 | 29585 ft | 444 kts | 64° |
| 2026-05-06 17:58 | -31.36871 | 117.30256 | 29925 ft | 447 kts | 64° |
| 2026-05-06 17:58 | -31.35439 | 117.33491 | 30269 ft | 450 kts | 63° |
| 2026-05-06 17:58 | -31.33998 | 117.36745 | 30595 ft | 452 kts | 64° |
| 2026-05-06 17:59 | -31.32549 | 117.40019 | 30872 ft | 454 kts | 64° |
| 2026-05-06 17:59 | -31.31090 | 117.43317 | 31143 ft | 457 kts | 64° |
| 2026-05-06 17:59 | -31.29625 | 117.46619 | 31409 ft | 459 kts | 63° |
| 2026-05-06 17:59 | -31.28153 | 117.49932 | 31691 ft | 460 kts | 63° |
| 2026-05-06 18:00 | -31.26674 | 117.53257 | 31981 ft | 462 kts | 64° |
| 2026-05-06 18:00 | -31.25232 | 117.56619 | 32359 ft | 461 kts | 65° |
| 2026-05-06 18:00 | -31.23851 | 117.59995 | 32741 ft | 460 kts | 66° |
| 2026-05-06 18:00 | -31.22501 | 117.63384 | 33116 ft | 460 kts | 66° |
| 2026-05-06 18:01 | -31.21163 | 117.66773 | 33500 ft | 459 kts | 66° |
| 2026-05-06 18:01 | -31.19821 | 117.70151 | 33894 ft | 458 kts | 66° |
| 2026-05-06 18:01 | -31.18466 | 117.73523 | 34272 ft | 458 kts | 65° |
| 2026-05-06 18:01 | -31.17101 | 117.76879 | 34637 ft | 457 kts | 65° |
| 2026-05-06 18:02 | -31.15726 | 117.80226 | 34951 ft | 458 kts | 65° |
| 2026-05-06 18:02 | -31.14347 | 117.83578 | 35237 ft | 458 kts | 65° |
| 2026-05-06 18:02 | -31.12965 | 117.86937 | 35511 ft | 459 kts | 65° |
| 2026-05-06 18:02 | -31.11581 | 117.90299 | 35778 ft | 460 kts | 65° |
| 2026-05-06 18:03 | -31.10195 | 117.93669 | 36040 ft | 461 kts | 65° |
| 2026-05-06 18:03 | -31.08808 | 117.97044 | 36292 ft | 462 kts | 65° |
| 2026-05-06 18:03 | -31.07421 | 118.00426 | 36546 ft | 462 kts | 65° |
| 2026-05-06 18:03 | -31.06028 | 118.03812 | 36799 ft | 463 kts | 65° |
| 2026-05-06 18:04 | -31.04633 | 118.07197 | 37057 ft | 464 kts | 65° |
| 2026-05-06 18:04 | -31.03252 | 118.10549 | 37308 ft | 464 kts | 65° |
| 2026-05-06 18:04 | -31.01855 | 118.13951 | 37445 ft | 465 kts | 65° |
| 2026-05-06 18:04 | -31.00456 | 118.17353 | 37471 ft | 465 kts | 65° |
| 2026-05-06 18:05 | -30.97650 | 118.24148 | 37469 ft | 465 kts | 65° |
| 2026-05-06 18:05 | -30.94835 | 118.30940 | 37469 ft | 465 kts | 65° |
| 2026-05-06 18:06 | -30.92019 | 118.37728 | 37479 ft | 465 kts | 65° |
| 2026-05-06 18:06 | -30.89198 | 118.44501 | 37471 ft | 465 kts | 65° |
| 2026-05-06 18:07 | -30.86377 | 118.51272 | 37469 ft | 465 kts | 65° |
| 2026-05-06 18:07 | -30.83562 | 118.58039 | 37459 ft | 465 kts | 65° |
| 2026-05-06 18:08 | -30.80747 | 118.64765 | 37459 ft | 466 kts | 65° |
| 2026-05-06 18:08 | -30.77907 | 118.71544 | 37465 ft | 466 kts | 65° |
| 2026-05-06 18:09 | -30.75061 | 118.78327 | 37462 ft | 466 kts | 65° |
| 2026-05-06 18:09 | -30.72425 | 118.85198 | 37462 ft | 465 kts | 74° |
| 2026-05-06 18:10 | -30.71421 | 118.92569 | 37465 ft | 462 kts | 89° |
| 2026-05-06 18:10 | -30.71117 | 119.00030 | 37470 ft | 462 kts | 89° |
| 2026-05-06 18:11 | -30.70837 | 119.06233 | 37471 ft | 462 kts | 89° |
| 2026-05-06 18:11 | -30.70440 | 119.14957 | 37468 ft | 463 kts | 89° |
| 2026-05-06 18:12 | -30.70273 | 119.18692 | 37256 ft | 462 kts | 89° |
| 2026-05-06 18:12 | -30.70105 | 119.22415 | 36960 ft | 460 kts | 88° |
| 2026-05-06 18:12 | -30.69935 | 119.26091 | 36252 ft | 464 kts | 88° |
| 2026-05-06 18:12 | -30.69758 | 119.29849 | 35483 ft | 467 kts | 88° |
| 2026-05-06 18:13 | -30.69579 | 119.33633 | 34659 ft | 472 kts | 88° |
| 2026-05-06 18:13 | -30.69401 | 119.37442 | 33990 ft | 470 kts | 88° |
| 2026-05-06 18:13 | -30.69227 | 119.41198 | 33156 ft | 462 kts | 88° |
| 2026-05-06 18:13 | -30.69055 | 119.44897 | 32676 ft | 455 kts | 88° |
| 2026-05-06 18:14 | -30.68884 | 119.48555 | 32139 ft | 451 kts | 88° |
| 2026-05-06 18:14 | -30.68714 | 119.52178 | 31611 ft | 447 kts | 88° |
| 2026-05-06 18:14 | -30.68544 | 119.55774 | 31079 ft | 443 kts | 88° |
| 2026-05-06 18:14 | -30.68374 | 119.59335 | 30552 ft | 440 kts | 88° |
| 2026-05-06 18:15 | -30.68204 | 119.62870 | 29976 ft | 435 kts | 88° |
| 2026-05-06 18:15 | -30.68036 | 119.66357 | 29475 ft | 430 kts | 88° |
| 2026-05-06 18:15 | -30.67866 | 119.69805 | 28966 ft | 425 kts | 88° |
| 2026-05-06 18:15 | -30.67694 | 119.73207 | 28473 ft | 420 kts | 88° |
| 2026-05-06 18:16 | -30.67525 | 119.76528 | 27986 ft | 415 kts | 88° |
| 2026-05-06 18:16 | -30.67357 | 119.79852 | 27520 ft | 410 kts | 88° |
| 2026-05-06 18:16 | -30.67195 | 119.83136 | 27061 ft | 405 kts | 88° |
| 2026-05-06 18:16 | -30.67036 | 119.86385 | 26605 ft | 401 kts | 88° |
| 2026-05-06 18:17 | -30.66878 | 119.89604 | 26172 ft | 396 kts | 88° |
| 2026-05-06 18:17 | -30.66720 | 119.92786 | 25740 ft | 393 kts | 88° |
| 2026-05-06 18:17 | -30.66560 | 119.95940 | 25279 ft | 389 kts | 87° |
| 2026-05-06 18:17 | -30.66395 | 119.99098 | 24466 ft | 393 kts | 87° |
| 2026-05-06 18:18 | -30.66227 | 120.02236 | 24037 ft | 387 kts | 87° |
| 2026-05-06 18:18 | -30.66064 | 120.05342 | 23571 ft | 383 kts | 87° |
| 2026-05-06 18:18 | -30.65903 | 120.08426 | 23000 ft | 382 kts | 87° |
| 2026-05-06 18:18 | -30.65742 | 120.11539 | 22350 ft | 389 kts | 87° |
| 2026-05-06 18:19 | -30.65579 | 120.14678 | 21706 ft | 389 kts | 87° |
| 2026-05-06 18:19 | -30.65419 | 120.17776 | 21097 ft | 389 kts | 87° |
| 2026-05-06 18:19 | -30.65256 | 120.20910 | 20484 ft | 389 kts | 86° |
| 2026-05-06 18:19 | -30.65091 | 120.24049 | 19882 ft | 388 kts | 86° |
| 2026-05-06 18:20 | -30.64925 | 120.27169 | 19294 ft | 387 kts | 86° |
| 2026-05-06 18:20 | -30.64757 | 120.30274 | 18782 ft | 383 kts | 86° |
| 2026-05-06 18:20 | -30.64590 | 120.33353 | 18102 ft | 380 kts | 86° |
| 2026-05-06 18:20 | -30.64425 | 120.36405 | 17463 ft | 378 kts | 86° |
| 2026-05-06 18:21 | -30.64260 | 120.39439 | 16821 ft | 375 kts | 86° |
| 2026-05-06 18:21 | -30.64095 | 120.42448 | 16194 ft | 372 kts | 86° |
| 2026-05-06 18:21 | -30.63930 | 120.45434 | 15580 ft | 368 kts | 86° |
| 2026-05-06 18:21 | -30.63767 | 120.48385 | 14979 ft | 365 kts | 86° |
| 2026-05-06 18:22 | -30.63608 | 120.51311 | 14392 ft | 362 kts | 87° |
| 2026-05-06 18:22 | -30.63450 | 120.54213 | 13853 ft | 357 kts | 86° |
| 2026-05-06 18:22 | -30.63344 | 120.56110 | 13503 ft | 355 kts | 86° |
| 2026-05-06 18:22 | -30.63182 | 120.58959 | 12991 ft | 351 kts | 87° |
| 2026-05-06 18:23 | -30.62973 | 120.62689 | 12324 ft | 348 kts | 87° |
| 2026-05-06 18:23 | -30.62817 | 120.65479 | 11828 ft | 345 kts | 87° |
| 2026-05-06 18:23 | -30.62662 | 120.68251 | 11338 ft | 343 kts | 87° |
| 2026-05-06 18:23 | -30.62506 | 120.71002 | 10856 ft | 338 kts | 87° |
| 2026-05-06 18:24 | -30.62402 | 120.72817 | 10737 ft | 329 kts | 87° |
| 2026-05-06 18:24 | -30.62256 | 120.75398 | 10659 ft | 312 kts | 87° |
| 2026-05-06 18:24 | -30.62114 | 120.77854 | 10585 ft | 297 kts | 87° |
| 2026-05-06 18:24 | -30.61978 | 120.80167 | 10514 ft | 285 kts | 87° |
| 2026-05-06 18:25 | -30.61843 | 120.82409 | 10445 ft | 273 kts | 87° |
| 2026-05-06 18:25 | -30.61715 | 120.84562 | 10371 ft | 262 kts | 87° |
| 2026-05-06 18:25 | -30.61595 | 120.86624 | 10294 ft | 251 kts | 87° |
| 2026-05-06 18:25 | -30.61481 | 120.88626 | 10185 ft | 247 kts | 88° |
| 2026-05-06 18:26 | -30.61519 | 120.90601 | 9925 ft | 243 kts | 98° |
| 2026-05-06 18:26 | -30.61877 | 120.92508 | 9611 ft | 241 kts | 108° |
| 2026-05-06 18:26 | -30.62455 | 120.94328 | 9282 ft | 240 kts | 110° |
| 2026-05-06 18:26 | -30.63034 | 120.96135 | 8961 ft | 238 kts | 110° |
| 2026-05-06 18:27 | -30.63609 | 120.97933 | 8630 ft | 236 kts | 109° |
| 2026-05-06 18:27 | -30.64176 | 120.99714 | 8301 ft | 234 kts | 109° |
| 2026-05-06 18:27 | -30.64738 | 121.01485 | 7989 ft | 233 kts | 109° |
| 2026-05-06 18:27 | -30.65294 | 121.03237 | 7672 ft | 230 kts | 109° |
| 2026-05-06 18:28 | -30.65845 | 121.04975 | 7304 ft | 228 kts | 109° |
| 2026-05-06 18:28 | -30.66390 | 121.06692 | 6915 ft | 224 kts | 109° |
| 2026-05-06 18:28 | -30.66921 | 121.08365 | 6497 ft | 218 kts | 109° |
| 2026-05-06 18:28 | -30.67440 | 121.09997 | 6093 ft | 213 kts | 108° |
| 2026-05-06 18:29 | -30.67940 | 121.11576 | 5692 ft | 210 kts | 108° |
| 2026-05-06 18:29 | -30.68438 | 121.13151 | 5501 ft | 201 kts | 108° |
| 2026-05-06 18:29 | -30.68908 | 121.14637 | 5388 ft | 191 kts | 108° |
| 2026-05-06 18:29 | -30.69362 | 121.16070 | 5190 ft | 188 kts | 108° |
| 2026-05-06 18:30 | -30.69811 | 121.17487 | 4978 ft | 186 kts | 108° |
| 2026-05-06 18:30 | -30.70259 | 121.18893 | 4771 ft | 185 kts | 108° |
| 2026-05-06 18:30 | -30.70707 | 121.20291 | 4581 ft | 184 kts | 108° |
| 2026-05-06 18:30 | -30.71148 | 121.21658 | 4438 ft | 176 kts | 108° |
| 2026-05-06 18:31 | -30.71574 | 121.22972 | 4248 ft | 173 kts | 108° |
| 2026-05-06 18:31 | -30.71995 | 121.24273 | 4076 ft | 171 kts | 107° |
| 2026-05-06 18:31 | -30.72412 | 121.25565 | 3925 ft | 171 kts | 108° |
| 2026-05-06 18:31 | -30.72828 | 121.26855 | 3774 ft | 170 kts | 108° |
| 2026-05-06 18:32 | -30.73241 | 121.28140 | 3617 ft | 169 kts | 108° |
| 2026-05-06 18:32 | -30.73651 | 121.29416 | 3465 ft | 168 kts | 108° |
| 2026-05-06 18:32 | -30.74060 | 121.30685 | 3308 ft | 167 kts | 108° |
| 2026-05-06 18:32 | -30.74467 | 121.31947 | 3192 ft | 166 kts | 108° |
| 2026-05-06 18:33 | -30.74874 | 121.33206 | 3123 ft | 166 kts | 108° |
| 2026-05-06 18:33 | -30.75264 | 121.34405 | 3104 ft | 154 kts | 107° |
| 2026-05-06 18:33 | -30.75634 | 121.35550 | 3076 ft | 149 kts | 107° |
| 2026-05-06 18:33 | -30.75994 | 121.36668 | 2931 ft | 149 kts | 107° |
| 2026-05-06 18:34 | -30.76354 | 121.37784 | 2696 ft | 144 kts | 108° |
| 2026-05-06 18:34 | -30.76698 | 121.38846 | 2441 ft | 139 kts | 108° |
| 2026-05-06 18:34 | -30.77030 | 121.39887 | 2239 ft | 137 kts | 109° |
| 2026-05-06 18:34 | -30.77357 | 121.40925 | 2045 ft | 136 kts | 110° |
| 2026-05-06 18:35 | -30.77687 | 121.41948 | 1880 ft | 134 kts | 110° |
| 2026-05-06 18:35 | -30.78020 | 121.42980 | 1710 ft | 137 kts | 111° |
| 2026-05-06 18:35 | -30.78357 | 121.44010 | 1508 ft | 135 kts | 110° |
| 2026-05-06 18:35 | -30.78687 | 121.45041 | 1337 ft | 136 kts | 110° |
| 2026-05-06 18:36 | -30.79018 | 121.46060 | 1229 ft | 132 kts | 112° |
| 2026-05-06 18:36 | -30.79388 | 121.47116 | 1699 ft | 146 kts | 113° |
| 2026-05-06 18:36 | -30.79770 | 121.48212 | 2516 ft | 148 kts | 110° |
| 2026-05-06 18:36 | -30.80150 | 121.49411 | 2994 ft | 170 kts | 106° |
| 2026-05-06 18:37 | -30.80576 | 121.50806 | 3074 ft | 189 kts | 107° |
| 2026-05-06 18:37 | -30.81087 | 121.52233 | 3099 ft | 195 kts | 119° |
| 2026-05-06 18:37 | -30.82163 | 121.53216 | 3108 ft | 206 kts | 156° |
| 2026-05-06 18:37 | -30.83626 | 121.53268 | 3112 ft | 224 kts | 191° |
| 2026-05-06 18:38 | -30.84998 | 121.52306 | 3112 ft | 240 kts | 225° |
| 2026-05-06 18:38 | -30.85764 | 121.50566 | 3115 ft | 248 kts | 259° |
| 2026-05-06 18:38 | -30.85906 | 121.48560 | 3112 ft | 250 kts | 269° |
| 2026-05-06 18:38 | -30.85925 | 121.46542 | 3110 ft | 250 kts | 270° |
| 2026-05-06 18:39 | -30.85862 | 121.44524 | 3106 ft | 249 kts | 280° |
| 2026-05-06 18:39 | -30.85508 | 121.42555 | 3114 ft | 249 kts | 285° |
| 2026-05-06 18:39 | -30.85098 | 121.40590 | 3119 ft | 249 kts | 286° |
| 2026-05-06 18:40 | -30.84213 | 121.36681 | 3107 ft | 250 kts | 290° |
| 2026-05-06 18:40 | -30.83665 | 121.34764 | 3109 ft | 249 kts | 290° |
| 2026-05-06 18:40 | -30.83105 | 121.32852 | 3111 ft | 249 kts | 290° |
| 2026-05-06 18:40 | -30.82543 | 121.30943 | 3114 ft | 249 kts | 291° |
| 2026-05-06 18:41 | -30.81979 | 121.29032 | 3114 ft | 249 kts | 290° |
| 2026-05-06 18:41 | -30.81415 | 121.27128 | 3116 ft | 249 kts | 291° |
| 2026-05-06 18:41 | -30.80860 | 121.25251 | 3116 ft | 249 kts | 290° |
| 2026-05-06 18:41 | -30.80296 | 121.23343 | 3122 ft | 249 kts | 291° |
| 2026-05-06 18:42 | -30.79749 | 121.21426 | 3125 ft | 250 kts | 291° |
| 2026-05-06 18:42 | -30.79218 | 121.19535 | 3125 ft | 242 kts | 290° |
| 2026-05-06 18:42 | -30.78698 | 121.17676 | 3131 ft | 241 kts | 290° |
| 2026-05-06 18:42 | -30.78078 | 121.15887 | 3127 ft | 236 kts | 309° |
| 2026-05-06 18:43 | -30.76917 | 121.14636 | 3131 ft | 221 kts | 338° |
| 2026-05-06 18:43 | -30.75549 | 121.14135 | 3125 ft | 194 kts | 3° |
| 2026-05-06 18:43 | -30.74256 | 121.14294 | 3131 ft | 182 kts | 25° |
| 2026-05-06 18:43 | -30.73158 | 121.14954 | 3131 ft | 176 kts | 43° |
| 2026-05-06 18:44 | -30.72142 | 121.15856 | 3136 ft | 188 kts | 43° |
| 2026-05-06 18:44 | -30.71256 | 121.16925 | 3128 ft | 186 kts | 60° |
| 2026-05-06 18:44 | -30.70740 | 121.18285 | 3126 ft | 184 kts | 78° |
| 2026-05-06 18:44 | -30.70658 | 121.19764 | 3131 ft | 185 kts | 96° |
| 2026-05-06 18:45 | -30.71005 | 121.21205 | 3135 ft | 187 kts | 109° |
| 2026-05-06 18:45 | -30.71469 | 121.22614 | 3125 ft | 186 kts | 108° |
| 2026-05-06 18:45 | -30.71911 | 121.23975 | 3148 ft | 172 kts | 108° |
| 2026-05-06 18:45 | -30.72327 | 121.25264 | 3128 ft | 168 kts | 108° |
| 2026-05-06 18:46 | -30.72735 | 121.26532 | 3124 ft | 167 kts | 108° |
| 2026-05-06 18:46 | -30.73139 | 121.27792 | 3077 ft | 166 kts | 108° |
| 2026-05-06 18:46 | -30.73536 | 121.29031 | 2999 ft | 165 kts | 108° |
| 2026-05-06 18:46 | -30.73938 | 121.30283 | 2973 ft | 165 kts | 108° |
| 2026-05-06 18:47 | -30.74340 | 121.31535 | 2956 ft | 165 kts | 108° |
| 2026-05-06 18:47 | -30.74731 | 121.32742 | 2943 ft | 153 kts | 108° |
| 2026-05-06 18:47 | -30.75098 | 121.33875 | 2944 ft | 147 kts | 108° |
| 2026-05-06 18:47 | -30.75448 | 121.34955 | 2942 ft | 139 kts | 108° |
| 2026-05-06 18:48 | -30.75784 | 121.35994 | 2940 ft | 136 kts | 107° |
| 2026-05-06 18:48 | -30.76117 | 121.37028 | 2767 ft | 136 kts | 107° |
| 2026-05-06 18:48 | -30.76446 | 121.38049 | 2551 ft | 134 kts | 107° |
| 2026-05-06 18:48 | -30.76766 | 121.39074 | 2373 ft | 134 kts | 108° |
| 2026-05-06 18:49 | -30.77084 | 121.40095 | 2189 ft | 135 kts | 109° |
| 2026-05-06 18:49 | -30.77413 | 121.41116 | 1988 ft | 134 kts | 110° |
| 2026-05-06 18:49 | -30.77742 | 121.42129 | 1837 ft | 135 kts | 111° |
| 2026-05-06 18:49 | -30.78071 | 121.43138 | 1674 ft | 134 kts | 111° |
| 2026-05-06 18:50 | -30.78396 | 121.44143 | 1461 ft | 133 kts | 112° |
| 2026-05-06 18:50 | -30.78722 | 121.45151 | 1299 ft | 133 kts | 112° |
| 2026-05-06 18:50 | -30.79044 | 121.46133 | 1214 ft | 121 kts | 110° |
| 2026-05-06 18:50 | -30.79245 | 121.46761 | 1210 ft | 39 kts | 111° |
| 2026-05-06 18:51 | -30.79321 | 121.47004 | 1212 ft | 16 kts | 100° |
| 2026-05-06 18:51 | -30.79349 | 121.47102 | 1212 ft | 6 kts | 174° |
| 2026-05-06 18:51 | -30.79349 | 121.47068 | 1212 ft | 8 kts | 296° |
| 2026-05-06 18:51 | -30.79314 | 121.46971 | 1212 ft | 18 kts | 290° |
| 2026-05-06 18:52 | -30.79259 | 121.46801 | 1211 ft | 25 kts | 290° |
| 2026-05-06 18:52 | -30.79193 | 121.46599 | 1210 ft | 28 kts | 291° |
| 2026-05-06 18:52 | -30.79121 | 121.46377 | 1210 ft | 31 kts | 290° |
| 2026-05-06 18:52 | -30.79045 | 121.46140 | 1213 ft | 32 kts | 290° |
| 2026-05-06 18:53 | -30.78966 | 121.45898 | 1214 ft | 29 kts | 290° |
| 2026-05-06 18:53 | -30.78915 | 121.45739 | 1214 ft | 13 kts | 291° |
| 2026-05-06 18:53 | -30.78845 | 121.45722 | 1213 ft | 14 kts | 20° |
| 2026-05-06 18:53 | -30.78745 | 121.45765 | 1212 ft | 15 kts | 20° |
| 2026-05-06 18:54 | -30.78671 | 121.45797 | 1212 ft | 10 kts | 18° |
| 2026-05-06 18:54 | -30.78616 | 121.45793 | 1212 ft | 5 kts | 354° |
| 2026-05-06 18:54 | -30.78600 | 121.45796 | 1212 ft | 2 kts | 37° |
| 2026-05-06 18:54 | -30.78593 | 121.45807 | 1212 ft | 0 kts | 55° |
| 2026-05-06 18:55 | -30.78592 | 121.45806 | 1212 ft | 0 kts | 59° |